createdAt,value
2019-02-12T00:00:24.602Z,1019.82
2019-02-12T00:01:26.442Z,1019.83
2019-02-12T00:02:35.768Z,1019.85
2019-02-12T00:03:41.106Z,1019.90
2019-02-12T00:04:45.406Z,1019.86
2019-02-12T00:05:51.968Z,1019.87
2019-02-12T00:06:56.798Z,1019.87
2019-02-12T00:08:07.139Z,1019.87
2019-02-12T00:09:13.082Z,1019.90
2019-02-12T00:10:15.343Z,1019.87
2019-02-12T00:11:17.496Z,1019.85
2019-02-12T00:12:32.764Z,1019.86
2019-02-12T00:13:31.753Z,1019.88
2019-02-12T00:14:35.746Z,1019.92
2019-02-12T00:15:58.596Z,1019.90
2019-02-12T00:16:45.489Z,1019.88
2019-02-12T00:17:49.285Z,1019.85
2019-02-12T00:19:09.266Z,1019.93
2019-02-12T00:20:06.201Z,1019.93
2019-02-12T00:21:10.502Z,1019.91
2019-02-12T00:22:15.835Z,1019.89
2019-02-12T00:23:29.674Z,1019.94
2019-02-12T00:24:33.155Z,1019.98
2019-02-12T00:25:33.466Z,1020.00
2019-02-12T00:26:30.403Z,1019.98
2019-02-12T00:27:43.550Z,1019.99
2019-02-12T00:28:56.117Z,1020.01
2019-02-12T00:29:52.850Z,1020.10
2019-02-12T00:31:02.173Z,1020.03
2019-02-12T00:32:02.698Z,1020.09
2019-02-12T00:33:06.393Z,1020.08
2019-02-12T00:34:25.443Z,1020.14
2019-02-12T00:35:29.545Z,1020.12
2019-02-12T00:36:37.740Z,1020.07
2019-02-12T00:37:41.434Z,1020.10
2019-02-12T00:38:42.941Z,1020.07
2019-02-12T00:39:52.610Z,1020.09
2019-02-12T00:40:56.141Z,1020.08
2019-02-12T00:41:59.691Z,1020.04
2019-02-12T00:43:01.026Z,1020.06
2019-02-12T00:44:07.591Z,1020.11
2019-02-12T00:45:10.361Z,1020.08
2019-02-12T00:46:22.551Z,1020.07
2019-02-12T00:47:29.121Z,1020.05
2019-02-12T00:48:34.649Z,1020.12
2019-02-12T00:49:24.321Z,1020.12
2019-02-12T00:50:51.153Z,1020.11
2019-02-12T00:51:50.644Z,1020.08
2019-02-12T00:52:49.939Z,1020.06
2019-02-12T00:53:57.830Z,1020.10
2019-02-12T00:54:58.656Z,1020.10
2019-02-12T00:56:11.048Z,1020.09
2019-02-12T00:57:17.614Z,1020.14
2019-02-12T00:58:19.777Z,1020.10
2019-02-12T00:59:21.721Z,1020.12
2019-02-12T01:00:37.812Z,1020.12
2019-02-12T01:01:39.656Z,1020.18
2019-02-12T01:02:58.912Z,1020.18
2019-02-12T01:03:53.699Z,1020.17
2019-02-12T01:04:59.848Z,1020.14
2019-02-12T01:06:11.325Z,1020.12
2019-02-12T01:07:06.213Z,1020.14
2019-02-12T01:08:10.517Z,1020.12
2019-02-12T01:09:20.353Z,1020.11
2019-02-12T01:10:37.259Z,1020.09
2019-02-12T01:11:38.595Z,1020.10
2019-02-12T01:12:27.749Z,1020.14
2019-02-12T01:13:49.055Z,1020.12
2019-02-12T01:14:43.428Z,1020.12
2019-02-12T01:15:53.060Z,1020.10
2019-02-12T01:17:03.312Z,1020.08
2019-02-12T01:17:56.454Z,1020.07
2019-02-12T01:19:08.645Z,1020.07
2019-02-12T01:20:08.553Z,1020.11
2019-02-12T01:21:16.854Z,1020.16
2019-02-12T01:22:31.607Z,1020.16
2019-02-12T01:23:35.095Z,1020.23
2019-02-12T01:24:29.470Z,1020.21
2019-02-12T01:26:11.671Z,1020.24
2019-02-12T01:27:11.058Z,1020.25
2019-02-12T01:27:46.182Z,1020.26
2019-02-12T01:28:49.709Z,1020.26
2019-02-12T01:30:04.936Z,1020.25
2019-02-12T01:31:16.514Z,1020.24
2019-02-12T01:32:27.476Z,1020.22
2019-02-12T01:33:25.131Z,1020.25
2019-02-12T01:34:23.805Z,1020.29
2019-02-12T01:35:44.801Z,1020.29
2019-02-12T01:36:40.609Z,1020.29
2019-02-12T01:37:39.339Z,1020.28
2019-02-12T01:39:04.791Z,1020.29
2019-02-12T01:39:45.045Z,1020.31
2019-02-12T01:41:06.339Z,1020.33
2019-02-12T01:42:05.219Z,1020.29
2019-02-12T01:43:08.811Z,1020.35
2019-02-12T01:44:22.745Z,1020.35
2019-02-12T01:45:30.638Z,1020.34
2019-02-12T01:46:29.313Z,1020.29
2019-02-12T01:47:25.736Z,1020.35
2019-02-12T01:48:41.113Z,1020.35
2019-02-12T01:49:48.079Z,1020.39
2019-02-12T01:50:49.210Z,1020.37
2019-02-12T01:52:00.684Z,1020.37
2019-02-12T01:53:02.163Z,1020.38
2019-02-12T01:54:07.965Z,1020.40
2019-02-12T01:55:05.732Z,1020.40
2019-02-12T01:56:13.613Z,1020.45
2019-02-12T01:57:19.761Z,1020.47
2019-02-12T01:58:31.645Z,1020.50
2019-02-12T01:59:37.491Z,1020.47
2019-02-12T02:00:50.094Z,1020.45
2019-02-12T02:01:33.920Z,1020.47
2019-02-12T02:02:54.716Z,1020.47
2019-02-12T02:03:46.537Z,1020.46
2019-02-12T02:04:57.394Z,1020.45
2019-02-12T02:06:07.841Z,1020.43
2019-02-12T02:07:08.261Z,1020.41
2019-02-12T02:08:09.087Z,1020.43
2019-02-12T02:09:19.946Z,1020.50
2019-02-12T02:10:16.064Z,1020.46
2019-02-12T02:11:32.044Z,1020.42
2019-02-12T02:12:41.164Z,1020.42
2019-02-12T02:13:37.689Z,1020.42
2019-02-12T02:14:40.771Z,1020.42
2019-02-12T02:15:56.956Z,1020.44
2019-02-12T02:17:06.690Z,1020.41
2019-02-12T02:18:07.824Z,1020.46
2019-02-12T02:19:06.907Z,1020.42
2019-02-12T02:20:08.761Z,1020.40
2019-02-12T02:21:25.048Z,1020.46
2019-02-12T02:22:20.343Z,1020.48
2019-02-12T02:23:33.870Z,1020.52
2019-02-12T02:24:45.550Z,1020.54
2019-02-12T02:25:46.886Z,1020.49
2019-02-12T02:26:53.555Z,1020.48
2019-02-12T02:27:54.479Z,1020.48
2019-02-12T02:29:06.975Z,1020.49
2019-02-12T02:29:57.767Z,1020.49
2019-02-12T02:31:20.923Z,1020.50
2019-02-12T02:32:12.017Z,1020.53
2019-02-12T02:33:26.358Z,1020.56
2019-02-12T02:34:32.309Z,1020.57
2019-02-12T02:35:32.415Z,1020.54
2019-02-12T02:36:32.319Z,1020.53
2019-02-12T02:37:35.398Z,1020.55
2019-02-12T02:38:43.083Z,1020.55
2019-02-12T02:39:57.633Z,1020.51
2019-02-12T02:40:57.229Z,1020.58
2019-02-12T02:42:00.719Z,1020.55
2019-02-12T02:43:10.453Z,1020.54
2019-02-12T02:44:22.134Z,1020.55
2019-02-12T02:45:20.706Z,1020.56
2019-02-12T02:46:23.067Z,1020.58
2019-02-12T02:47:34.658Z,1020.54
2019-02-12T02:48:32.715Z,1020.59
2019-02-12T02:49:40.511Z,1020.54
2019-02-12T02:50:46.852Z,1020.63
2019-02-12T02:52:04.880Z,1020.60
2019-02-12T02:53:01.105Z,1020.59
2019-02-12T02:53:55.583Z,1020.60
2019-02-12T02:55:13.914Z,1020.63
2019-02-12T02:56:17.097Z,1020.62
2019-02-12T02:57:14.036Z,1020.62
2019-02-12T02:58:29.397Z,1020.62
2019-02-12T02:59:39.548Z,1020.62
2019-02-12T03:00:36.373Z,1020.65
2019-02-12T03:01:39.965Z,1020.64
2019-02-12T03:02:52.054Z,1020.61
2019-02-12T03:03:56.159Z,1020.63
2019-02-12T03:05:06.507Z,1020.64
2019-02-12T03:06:07.743Z,1020.62
2019-02-12T03:07:10.831Z,1020.66
2019-02-12T03:08:31.514Z,1020.69
2019-02-12T03:09:23.945Z,1020.73
2019-02-12T03:10:23.745Z,1020.74
2019-02-12T03:11:38.822Z,1020.74
2019-02-12T03:12:35.126Z,1020.73
2019-02-12T03:13:52.239Z,1020.78
2019-02-12T03:14:50.196Z,1020.74
2019-02-12T03:15:57.467Z,1020.75
2019-02-12T03:17:01.060Z,1020.77
2019-02-12T03:18:15.096Z,1020.78
2019-02-12T03:19:15.001Z,1020.79
2019-02-12T03:20:24.734Z,1020.80
2019-02-12T03:21:20.849Z,1020.80
2019-02-12T03:22:26.897Z,1020.82
2019-02-12T03:23:27.418Z,1020.82
2019-02-12T03:24:37.467Z,1020.81
2019-02-12T03:25:41.666Z,1020.77
2019-02-12T03:26:58.365Z,1020.82
2019-02-12T03:27:53.665Z,1020.79
2019-02-12T03:29:06.881Z,1020.85
2019-02-12T03:30:07.714Z,1020.83
2019-02-12T03:31:38.341Z,1020.86
2019-02-12T03:32:35.681Z,1020.87
2019-02-12T03:33:40.084Z,1020.85
2019-02-12T03:34:38.551Z,1020.90
2019-02-12T03:35:33.334Z,1020.96
2019-02-12T03:36:36.935Z,1020.92
2019-02-12T03:38:02.332Z,1020.91
2019-02-12T03:39:00.697Z,1020.87
2019-02-12T03:40:03.672Z,1020.90
2019-02-12T03:41:05.730Z,1020.86
2019-02-12T03:42:08.502Z,1020.88
2019-02-12T03:43:41.386Z,1020.91
2019-02-12T03:44:15.604Z,1020.93
2019-02-12T03:45:36.886Z,1020.95
2019-02-12T03:46:33.414Z,1020.92
2019-02-12T03:47:38.641Z,1020.89
2019-02-12T03:48:38.138Z,1020.90
2019-02-12T03:49:58.733Z,1020.89
2019-02-12T03:51:03.954Z,1020.91
2019-02-12T03:51:58.840Z,1020.90
2019-02-12T03:53:15.131Z,1020.89
2019-02-12T03:54:06.744Z,1020.90
2019-02-12T03:55:26.619Z,1020.90
2019-02-12T03:56:14.946Z,1020.91
2019-02-12T03:57:41.378Z,1020.93
2019-02-12T03:58:40.561Z,1020.95
2019-02-12T03:59:46.709Z,1020.94
2019-02-12T04:00:48.683Z,1020.96
2019-02-12T04:01:57.067Z,1020.94
2019-02-12T04:02:47.867Z,1020.90
2019-02-12T04:04:10.700Z,1020.92
2019-02-12T04:05:19.820Z,1020.92
2019-02-12T04:06:16.861Z,1020.87
2019-02-12T04:07:36.424Z,1020.91
2019-02-12T04:08:37.573Z,1020.92
2019-02-12T04:09:46.179Z,1020.91
2019-02-12T04:10:47.095Z,1020.86
2019-02-12T04:11:43.950Z,1020.88
2019-02-12T04:12:48.848Z,1020.85
2019-02-12T04:13:42.738Z,1020.85
2019-02-12T04:15:01.368Z,1020.91
2019-02-12T04:16:02.799Z,1020.92
2019-02-12T04:17:01.581Z,1020.90
2019-02-12T04:18:10.402Z,1020.88
2019-02-12T04:19:38.045Z,1020.93
2019-02-12T04:20:26.583Z,1020.86
2019-02-12T04:21:37.442Z,1020.81
2019-02-12T04:23:03.356Z,1020.85
2019-02-12T04:23:44.315Z,1020.87
2019-02-12T04:24:47.703Z,1020.93
2019-02-12T04:25:59.895Z,1020.95
2019-02-12T04:26:52.664Z,1021.01
2019-02-12T04:28:11.070Z,1020.92
2019-02-12T04:29:40.674Z,1020.93
2019-02-12T04:30:15.805Z,1020.93
2019-02-12T04:31:53.076Z,1020.90
2019-02-12T04:32:50.216Z,1020.89
2019-02-12T04:34:19.915Z,1020.85
2019-02-12T04:34:56.883Z,1020.86
2019-02-12T04:36:03.881Z,1020.84
2019-02-12T04:37:18.915Z,1020.80
2019-02-12T04:38:15.438Z,1020.74
2019-02-12T04:40:01.946Z,1020.72
2019-02-12T04:40:40.130Z,1020.76
2019-02-12T04:42:17.312Z,1020.76
2019-02-12T04:43:17.520Z,1020.82
2019-02-12T04:44:11.189Z,1020.80
2019-02-12T04:44:54.279Z,1020.83
2019-02-12T04:46:57.083Z,1020.82
2019-02-12T04:47:46.118Z,1020.87
2019-02-12T04:49:16.441Z,1020.84
2019-02-12T04:50:26.377Z,1020.85
2019-02-12T04:51:44.919Z,1020.84
2019-02-12T04:52:57.723Z,1020.82
2019-02-12T04:53:36.123Z,1020.81
2019-02-12T04:54:55.387Z,1020.75
2019-02-12T04:56:17.917Z,1020.82
2019-02-12T04:57:38.107Z,1020.81
2019-02-12T04:58:37.897Z,1020.81
2019-02-12T04:59:42.313Z,1020.83
2019-02-12T05:00:59.935Z,1020.83
2019-02-12T05:01:35.051Z,1020.81
2019-02-12T05:03:22.267Z,1020.82
2019-02-12T05:04:28.213Z,1020.86
2019-02-12T05:05:13.167Z,1020.86
2019-02-12T05:07:20.758Z,1020.86
2019-02-12T05:08:10.225Z,1020.86
2019-02-12T05:09:22.718Z,1020.83
2019-02-12T05:10:36.453Z,1020.89
2019-02-12T05:11:37.382Z,1020.88
2019-02-12T05:12:25.300Z,1020.85
2019-02-12T05:13:54.912Z,1020.85
2019-02-12T05:15:18.356Z,1020.84
2019-02-12T05:15:54.507Z,1020.89
2019-02-12T05:17:20.006Z,1020.85
2019-02-12T05:18:09.159Z,1020.88
2019-02-12T05:19:43.676Z,1020.86
2019-02-12T05:20:53.310Z,1020.89
2019-02-12T05:21:45.735Z,1020.89
2019-02-12T05:22:52.911Z,1020.90
2019-02-12T05:23:42.886Z,1020.87
2019-02-12T05:24:57.330Z,1020.82
2019-02-12T05:26:10.630Z,1020.92
2019-02-12T05:27:13.015Z,1020.92
2019-02-12T05:27:58.272Z,1020.94
2019-02-12T05:29:20.207Z,1020.94
2019-02-12T05:30:44.366Z,1020.96
2019-02-12T05:31:36.283Z,1020.99
2019-02-12T05:32:39.988Z,1020.96
2019-02-12T05:33:55.037Z,1020.97
2019-02-12T05:34:41.221Z,1020.99
2019-02-12T05:35:53.922Z,1021.00
2019-02-12T05:36:42.560Z,1020.97
2019-02-12T05:37:51.175Z,1020.99
2019-02-12T05:39:32.035Z,1021.02
2019-02-12T05:40:12.791Z,1021.03
2019-02-12T05:41:46.488Z,1021.05
2019-02-12T05:42:47.828Z,1021.10
2019-02-12T05:43:43.638Z,1021.09
2019-02-12T05:45:01.776Z,1021.10
2019-02-12T05:45:45.390Z,1021.14
2019-02-12T05:46:59.531Z,1021.10
2019-02-12T05:47:58.314Z,1021.14
2019-02-12T05:49:06.302Z,1021.12
2019-02-12T05:50:03.349Z,1021.10
2019-02-12T05:51:14.918Z,1021.08
2019-02-12T05:52:22.398Z,1021.10
2019-02-12T05:53:40.018Z,1021.07
2019-02-12T05:54:25.713Z,1021.13
2019-02-12T05:55:40.032Z,1021.06
2019-02-12T05:56:48.233Z,1021.04
2019-02-12T05:57:59.098Z,1021.06
2019-02-12T05:58:54.695Z,1021.07
2019-02-12T06:00:00.033Z,1021.04
2019-02-12T06:01:02.799Z,1021.03
2019-02-12T06:02:22.772Z,1021.07
2019-02-12T06:03:20.631Z,1021.07
2019-02-12T06:04:27.091Z,1021.08
2019-02-12T06:05:26.273Z,1021.13
2019-02-12T06:06:41.133Z,1021.08
2019-02-12T06:07:44.210Z,1021.11
2019-02-12T06:08:44.214Z,1021.11
2019-02-12T06:09:46.276Z,1021.11
2019-02-12T06:11:17.817Z,1021.12
2019-02-12T06:12:08.929Z,1021.13
2019-02-12T06:13:13.977Z,1021.18
2019-02-12T06:14:24.906Z,1021.15
2019-02-12T06:15:33.818Z,1021.18
2019-02-12T06:16:34.135Z,1021.17
2019-02-12T06:17:29.739Z,1021.15
2019-02-12T06:18:43.568Z,1021.15
2019-02-12T06:19:46.551Z,1021.16
2019-02-12T06:20:59.354Z,1021.19
2019-02-12T06:21:44.106Z,1021.17
2019-02-12T06:23:22.303Z,1021.18
2019-02-12T06:24:17.394Z,1021.19
2019-02-12T06:25:19.143Z,1021.21
2019-02-12T06:26:28.366Z,1021.21
2019-02-12T06:27:33.494Z,1021.23
2019-02-12T06:28:26.127Z,1021.27
2019-02-12T06:29:36.069Z,1021.28
2019-02-12T06:30:32.694Z,1021.30
2019-02-12T06:32:09.973Z,1021.33
2019-02-12T06:33:19.711Z,1021.32
2019-02-12T06:34:16.341Z,1021.31
2019-02-12T06:35:16.554Z,1021.27
2019-02-12T06:36:42.410Z,1021.29
2019-02-12T06:37:19.411Z,1021.27
2019-02-12T06:39:00.808Z,1021.30
2019-02-12T06:39:52.417Z,1021.28
2019-02-12T06:41:02.460Z,1021.23
2019-02-12T06:41:50.585Z,1021.32
2019-02-12T06:43:19.369Z,1021.30
2019-02-12T06:44:50.403Z,1021.30
2019-02-12T06:46:24.921Z,1021.28
2019-02-12T06:47:55.235Z,1021.31
2019-02-12T06:49:02.721Z,1021.36
2019-02-12T06:49:55.968Z,1021.39
2019-02-12T06:51:48.505Z,1021.41
2019-02-12T06:53:34.081Z,1021.42
2019-02-12T06:54:27.841Z,1021.45
2019-02-12T06:55:35.739Z,1021.50
2019-02-12T06:56:51.410Z,1021.49
2019-02-12T06:57:41.787Z,1021.52
2019-02-12T06:58:38.143Z,1021.53
2019-02-12T06:59:59.109Z,1021.51
2019-02-12T07:00:46.517Z,1021.53
2019-02-12T07:02:19.701Z,1021.54
2019-02-12T07:03:30.361Z,1021.53
2019-02-12T07:04:49.415Z,1021.50
2019-02-12T07:06:41.031Z,1021.55
2019-02-12T07:07:59.880Z,1021.59
2019-02-12T07:09:34.805Z,1021.62
2019-02-12T07:10:24.061Z,1021.66
2019-02-12T07:11:54.789Z,1021.66
2019-02-12T07:12:56.126Z,1021.65
2019-02-12T07:14:10.475Z,1021.69
2019-02-12T07:15:11.518Z,1021.72
2019-02-12T07:16:35.567Z,1021.73
2019-02-12T07:17:39.568Z,1021.74
2019-02-12T07:18:45.617Z,1021.75
2019-02-12T07:19:41.017Z,1021.76
2019-02-12T07:20:53.413Z,1021.77
2019-02-12T07:21:55.271Z,1021.79
2019-02-12T07:22:41.038Z,1021.84
2019-02-12T07:24:16.579Z,1021.84
2019-02-12T07:25:11.678Z,1021.87
2019-02-12T07:26:24.274Z,1021.87
2019-02-12T07:27:04.412Z,1021.90
2019-02-12T07:28:38.824Z,1021.91
2019-02-12T07:29:31.973Z,1021.88
2019-02-12T07:30:44.165Z,1021.91
2019-02-12T07:31:20.109Z,1021.97
2019-02-12T07:32:48.382Z,1022.00
2019-02-12T07:33:44.289Z,1022.06
2019-02-12T07:34:55.772Z,1022.00
2019-02-12T07:36:08.158Z,1022.01
2019-02-12T07:37:10.218Z,1022.04
2019-02-12T07:38:01.724Z,1022.03
2019-02-12T07:39:22.413Z,1022.07
2019-02-12T07:40:19.349Z,1022.07
2019-02-12T07:41:20.104Z,1022.14
2019-02-12T07:42:32.778Z,1022.18
2019-02-12T07:43:38.928Z,1022.20
2019-02-12T07:44:21.219Z,1022.19
2019-02-12T07:45:46.636Z,1022.25
2019-02-12T07:46:54.211Z,1022.24
2019-02-12T07:47:38.240Z,1022.28
2019-02-12T07:49:04.470Z,1022.29
2019-02-12T07:50:28.124Z,1022.31
2019-02-12T07:51:04.677Z,1022.31
2019-02-12T07:52:17.077Z,1022.28
2019-02-12T07:53:30.986Z,1022.33
2019-02-12T07:54:16.472Z,1022.29
2019-02-12T07:55:21.705Z,1022.31
2019-02-12T07:56:59.497Z,1022.33
2019-02-12T07:57:49.777Z,1022.37
2019-02-12T07:58:51.114Z,1022.40
2019-02-12T07:59:44.269Z,1022.40
2019-02-12T08:00:57.886Z,1022.46
2019-02-12T08:02:05.063Z,1022.49
2019-02-12T08:03:09.883Z,1022.53
2019-02-12T08:04:17.772Z,1022.58
2019-02-12T08:05:03.650Z,1022.56
2019-02-12T08:06:27.935Z,1022.62
2019-02-12T08:07:34.076Z,1022.61
2019-02-12T08:08:34.311Z,1022.62
2019-02-12T08:09:46.179Z,1022.63
2019-02-12T08:10:43.623Z,1022.58
2019-02-12T08:11:45.368Z,1022.58
2019-02-12T08:12:39.848Z,1022.60
2019-02-12T08:13:56.140Z,1022.64
2019-02-12T08:15:05.460Z,1022.71
2019-02-12T08:16:11.608Z,1022.70
2019-02-12T08:17:15.722Z,1022.72
2019-02-12T08:18:15.005Z,1022.75
2019-02-12T08:19:21.868Z,1022.81
2019-02-12T08:20:27.213Z,1022.84
2019-02-12T08:21:34.582Z,1022.84
2019-02-12T08:22:53.223Z,1022.85
2019-02-12T08:23:41.721Z,1022.88
2019-02-12T08:25:01.125Z,1022.87
2019-02-12T08:26:00.315Z,1022.88
2019-02-12T08:27:10.560Z,1022.88
2019-02-12T08:28:02.079Z,1022.88
2019-02-12T08:29:22.864Z,1022.84
2019-02-12T08:30:23.789Z,1022.87
2019-02-12T08:31:22.646Z,1022.90
2019-02-12T08:32:32.711Z,1022.91
2019-02-12T08:33:43.571Z,1022.94
2019-02-12T08:34:39.583Z,1022.90
2019-02-12T08:35:57.009Z,1022.90
2019-02-12T08:36:59.977Z,1022.87
2019-02-12T08:37:59.571Z,1022.90
2019-02-12T08:39:06.757Z,1022.92
2019-02-12T08:39:57.042Z,1022.89
2019-02-12T08:41:12.394Z,1022.89
2019-02-12T08:42:30.222Z,1022.91
2019-02-12T08:43:25.113Z,1022.90
2019-02-12T08:44:30.028Z,1022.90
2019-02-12T08:45:33.724Z,1022.94
2019-02-12T08:46:43.045Z,1022.94
2019-02-12T08:47:39.983Z,1022.94
2019-02-12T08:48:52.501Z,1022.93
2019-02-12T08:50:01.400Z,1022.96
2019-02-12T08:51:04.393Z,1022.94
2019-02-12T08:51:57.013Z,1022.95
2019-02-12T08:53:16.572Z,1022.99
2019-02-12T08:54:16.189Z,1022.98
2019-02-12T08:55:25.086Z,1023.04
2019-02-12T08:56:33.593Z,1022.98
2019-02-12T08:57:36.878Z,1023.00
2019-02-12T08:58:36.677Z,1022.96
2019-02-12T08:59:54.193Z,1022.98
2019-02-12T09:00:51.762Z,1023.02
2019-02-12T09:02:06.496Z,1023.01
2019-02-12T09:03:09.683Z,1023.02
2019-02-12T09:04:03.134Z,1023.00
2019-02-12T09:05:13.073Z,1023.03
2019-02-12T09:06:20.248Z,1023.06
2019-02-12T09:07:24.871Z,1023.06
2019-02-12T09:08:28.563Z,1023.05
2019-02-12T09:09:35.831Z,1023.11
2019-02-12T09:10:36.759Z,1023.14
2019-02-12T09:11:52.744Z,1023.19
2019-02-12T09:12:45.277Z,1023.18
2019-02-12T09:14:01.681Z,1023.16
2019-02-12T09:15:06.688Z,1023.15
2019-02-12T09:16:00.140Z,1023.23
2019-02-12T09:17:10.901Z,1023.22
2019-02-12T09:18:10.703Z,1023.22
2019-02-12T09:19:29.242Z,1023.27
2019-02-12T09:20:33.653Z,1023.28
2019-02-12T09:21:34.379Z,1023.32
2019-02-12T09:22:48.211Z,1023.37
2019-02-12T09:23:44.428Z,1023.36
2019-02-12T09:24:53.656Z,1023.42
2019-02-12T09:25:58.581Z,1023.37
2019-02-12T09:27:09.230Z,1023.40
2019-02-12T09:28:09.650Z,1023.37
2019-02-12T09:29:11.291Z,1023.40
2019-02-12T09:30:15.092Z,1023.37
2019-02-12T09:31:28.199Z,1023.37
2019-02-12T09:32:27.389Z,1023.30
2019-02-12T09:33:28.932Z,1023.25
2019-02-12T09:34:40.923Z,1023.21
2019-02-12T09:35:49.017Z,1023.27
2019-02-12T09:36:59.782Z,1023.33
2019-02-12T09:38:02.134Z,1023.32
2019-02-12T09:39:08.600Z,1023.38
2019-02-12T09:40:18.934Z,1023.38
2019-02-12T09:41:14.860Z,1023.46
2019-02-12T09:42:23.465Z,1023.44
2019-02-12T09:43:32.789Z,1023.45
2019-02-12T09:44:27.369Z,1023.48
2019-02-12T09:45:39.767Z,1023.44
2019-02-12T09:46:44.075Z,1023.45
2019-02-12T09:47:44.387Z,1023.48
2019-02-12T09:48:51.573Z,1023.48
2019-02-12T09:49:58.744Z,1023.43
2019-02-12T09:51:02.043Z,1023.47
2019-02-12T09:52:10.529Z,1023.44
2019-02-12T09:53:07.664Z,1023.47
2019-02-12T09:54:20.481Z,1023.44
2019-02-12T09:55:29.390Z,1023.46
2019-02-12T09:56:31.138Z,1023.41
2019-02-12T09:57:33.095Z,1023.44
2019-02-12T09:58:47.637Z,1023.45
2019-02-12T09:59:49.797Z,1023.45
2019-02-12T10:00:49.911Z,1023.44
2019-02-12T10:01:53.800Z,1023.48
2019-02-12T10:03:02.613Z,1023.48
2019-02-12T10:04:05.589Z,1023.47
2019-02-12T10:05:15.941Z,1023.44
2019-02-12T10:06:22.948Z,1023.47
2019-02-12T10:07:15.037Z,1023.42
2019-02-12T10:08:27.945Z,1023.40
2019-02-12T10:09:36.047Z,1023.36
2019-02-12T10:10:45.467Z,1023.38
2019-02-12T10:11:45.984Z,1023.39
2019-02-12T10:12:52.239Z,1023.42
2019-02-12T10:14:07.819Z,1023.43
2019-02-12T10:15:00.451Z,1023.42
2019-02-12T10:16:06.594Z,1023.46
2019-02-12T10:17:10.390Z,1023.46
2019-02-12T10:18:21.151Z,1023.47
2019-02-12T10:19:26.381Z,1023.52
2019-02-12T10:20:35.601Z,1023.53
2019-02-12T10:21:42.988Z,1023.51
2019-02-12T10:22:38.480Z,1023.53
2019-02-12T10:23:46.170Z,1023.53
2019-02-12T10:25:02.767Z,1023.48
2019-02-12T10:25:58.266Z,1023.48
2019-02-12T10:27:07.796Z,1023.50
2019-02-12T10:28:10.896Z,1023.47
2019-02-12T10:29:12.723Z,1023.48
2019-02-12T10:30:22.868Z,1023.46
2019-02-12T10:31:25.437Z,1023.53
2019-02-12T10:32:24.217Z,1023.50
2019-02-12T10:33:38.661Z,1023.53
2019-02-12T10:34:39.178Z,1023.52
2019-02-12T10:35:44.510Z,1023.53
2019-02-12T10:36:44.927Z,1023.53
2019-02-12T10:37:59.679Z,1023.56
2019-02-12T10:39:07.266Z,1023.58
2019-02-12T10:40:09.015Z,1023.61
2019-02-12T10:41:10.349Z,1023.61
2019-02-12T10:42:16.500Z,1023.55
2019-02-12T10:43:24.403Z,1023.58
2019-02-12T10:44:33.823Z,1023.56
2019-02-12T10:45:38.027Z,1023.58
2019-02-12T10:46:39.055Z,1023.53
2019-02-12T10:47:51.969Z,1023.49
2019-02-12T10:48:52.749Z,1023.48
2019-02-12T10:49:48.911Z,1023.53
2019-02-12T10:50:55.056Z,1023.52
2019-02-12T10:52:05.921Z,1023.52
2019-02-12T10:53:04.808Z,1023.49
2019-02-12T10:54:13.155Z,1023.48
2019-02-12T10:55:20.687Z,1023.45
2019-02-12T10:56:24.279Z,1023.46
2019-02-12T10:57:27.669Z,1023.44
2019-02-12T10:58:43.961Z,1023.41
2019-02-12T10:59:45.717Z,1023.41
2019-02-12T11:00:48.677Z,1023.36
2019-02-12T11:01:55.750Z,1023.33
2019-02-12T11:03:06.612Z,1023.35
2019-02-12T11:04:03.346Z,1023.38
2019-02-12T11:05:12.472Z,1023.43
2019-02-12T11:06:23.423Z,1023.42
2019-02-12T11:07:24.156Z,1023.39
2019-02-12T11:08:38.392Z,1023.38
2019-02-12T11:09:35.221Z,1023.36
2019-02-12T11:10:39.528Z,1023.40
2019-02-12T11:11:41.278Z,1023.40
2019-02-12T11:12:52.248Z,1023.38
2019-02-12T11:13:57.570Z,1023.39
2019-02-12T11:15:08.744Z,1023.40
2019-02-12T11:16:10.491Z,1023.38
2019-02-12T11:17:14.083Z,1023.34
2019-02-12T11:18:19.618Z,1023.36
2019-02-12T11:19:39.801Z,1023.35
2019-02-12T11:20:36.013Z,1023.35
2019-02-12T11:21:43.801Z,1023.37
2019-02-12T11:22:48.214Z,1023.30
2019-02-12T11:23:50.989Z,1023.30
2019-02-12T11:25:12.699Z,1023.25
2019-02-12T11:26:09.735Z,1023.30
2019-02-12T11:27:01.766Z,1023.26
2019-02-12T11:28:23.074Z,1023.22
2019-02-12T11:29:22.661Z,1023.21
2019-02-12T11:30:35.367Z,1023.24
2019-02-12T11:31:34.654Z,1023.25
2019-02-12T11:32:47.778Z,1023.26
2019-02-12T11:33:43.474Z,1023.19
2019-02-12T11:35:00.281Z,1023.26
2019-02-12T11:36:22.404Z,1023.26
2019-02-12T11:37:01.521Z,1023.27
2019-02-12T11:38:26.409Z,1023.27
2019-02-12T11:39:07.473Z,1023.31
2019-02-12T11:40:42.293Z,1023.30
2019-02-12T11:41:36.047Z,1023.28
2019-02-12T11:42:52.349Z,1023.34
2019-02-12T11:43:54.501Z,1023.30
2019-02-12T11:45:19.188Z,1023.32
2019-02-12T11:45:57.273Z,1023.28
2019-02-12T11:47:25.157Z,1023.29
2019-02-12T11:48:29.143Z,1023.28
2019-02-12T11:49:32.321Z,1023.25
2019-02-12T11:50:51.066Z,1023.32
2019-02-12T11:51:34.586Z,1023.29
2019-02-12T11:52:39.301Z,1023.29
2019-02-12T11:54:14.023Z,1023.34
2019-02-12T11:55:18.038Z,1023.31
2019-02-12T11:56:02.671Z,1023.32
2019-02-12T11:57:01.049Z,1023.32
2019-02-12T11:58:15.997Z,1023.27
2019-02-12T11:59:29.933Z,1023.28
2019-02-12T12:00:34.958Z,1023.24
2019-02-12T12:01:54.931Z,1023.21
2019-02-12T12:03:07.839Z,1023.23
2019-02-12T12:03:59.859Z,1023.22
2019-02-12T12:05:01.821Z,1023.24
2019-02-12T12:05:48.721Z,1023.25
2019-02-12T12:07:02.961Z,1023.23
2019-02-12T12:08:19.753Z,1023.21
2019-02-12T12:09:53.246Z,1023.21
2019-02-12T12:10:44.853Z,1023.19
2019-02-12T12:12:28.895Z,1023.20
2019-02-12T12:13:57.676Z,1023.20
2019-02-12T12:15:24.103Z,1023.16
2019-02-12T12:16:07.417Z,1023.16
2019-02-12T12:16:58.619Z,1023.18
2019-02-12T12:18:52.795Z,1023.07
2019-02-12T12:19:32.527Z,1023.12
2019-02-12T12:21:15.752Z,1023.09
2019-02-12T12:22:08.890Z,1023.12
2019-02-12T12:23:24.773Z,1023.11
2019-02-12T12:24:10.136Z,1023.13
2019-02-12T12:25:31.131Z,1023.13
2019-02-12T12:26:14.348Z,1023.16
2019-02-12T12:28:18.557Z,1023.18
2019-02-12T12:29:12.429Z,1023.21
2019-02-12T12:30:19.032Z,1023.20
2019-02-12T12:31:16.222Z,1023.23
2019-02-12T12:32:54.225Z,1023.20
2019-02-12T12:33:30.984Z,1023.19
2019-02-12T12:34:42.262Z,1023.21
2019-02-12T12:35:36.637Z,1023.24
2019-02-12T12:38:00.203Z,1023.23
2019-02-12T12:38:52.213Z,1023.24
2019-02-12T12:39:36.862Z,1023.20
2019-02-12T12:41:19.163Z,1023.23
2019-02-12T12:42:20.191Z,1023.20
2019-02-12T12:43:39.147Z,1023.20
2019-02-12T12:44:25.534Z,1023.22
2019-02-12T12:45:48.576Z,1023.18
2019-02-12T12:46:53.089Z,1023.20
2019-02-12T12:48:24.025Z,1023.16
2019-02-12T12:49:00.171Z,1023.15
2019-02-12T12:50:01.816Z,1023.20
2019-02-12T12:51:32.071Z,1023.20
2019-02-12T12:52:19.958Z,1023.16
2019-02-12T12:53:18.014Z,1023.16
2019-02-12T12:54:33.583Z,1023.17
2019-02-12T12:56:16.812Z,1023.10
2019-02-12T12:56:55.825Z,1023.18
2019-02-12T12:58:15.800Z,1023.14
2019-02-12T12:59:01.263Z,1023.15
2019-02-12T13:00:27.790Z,1023.17
2019-02-12T13:01:38.771Z,1023.21
2019-02-12T13:02:36.719Z,1023.16
2019-02-12T13:03:42.670Z,1023.19
2019-02-12T13:04:33.975Z,1023.18
2019-02-12T13:05:57.622Z,1023.12
2019-02-12T13:06:47.605Z,1023.21
2019-02-12T13:07:59.584Z,1023.13
2019-02-12T13:09:04.711Z,1023.18
2019-02-12T13:10:24.682Z,1023.16
2019-02-12T13:11:11.484Z,1023.13
2019-02-12T13:12:22.549Z,1023.14
2019-02-12T13:13:43.445Z,1023.10
2019-02-12T13:14:35.464Z,1023.17
2019-02-12T13:15:29.941Z,1023.15
2019-02-12T13:16:24.418Z,1023.13
2019-02-12T13:17:23.199Z,1023.16
2019-02-12T13:18:45.346Z,1023.13
2019-02-12T13:20:08.368Z,1023.17
2019-02-12T13:21:12.274Z,1023.17
2019-02-12T13:22:03.876Z,1023.16
2019-02-12T13:23:10.233Z,1023.21
2019-02-12T13:24:26.212Z,1023.21
2019-02-12T13:25:20.186Z,1023.24